Gran Cañón, AZ

2:55 AM MST en Noviembre 26, 2014 (GMT -0700)
KAZGRAND3 | Change Station
CLOSE
Current Station
Estación meteorológica personal
Location: Grand Canyon, AZ
Altura: 6991 ft
Estaciones meteorológicas cercanas

Alt 6991 ft 36.05 °N, 112.12 °W | Updated 5 seconds ago

Despejado
Despejado
35.8 ° F
Sensación térmica 36 ° F
N
0.0
Viento Variable Viento desde Oeste
Gusts 0.0 mph

Hoy
Alta -- | Baja -- ° F
--% Posibilidad de precipitaciones
Ayer
Alta -- | Baja -- ° F
Precip. -- pul
7:16 AM 5:15 PM
Creciente, 18% visible
Presión 30.42 pul
Visibilidad 10.0 Millas
Nubes Despejado
Vientos helados 36 ° F
Punto de rocío 17 ° F
Humedad 46%
Precipitaciones 0.00 pul
Espesor de la nieve No disponible.
UV 0 de una escala de 12
Polen .40 de una escala de 12
Calidad del aire No disponible.
Flu Activity No disponible.
METAR KGCN 260854Z AUTO 00000KT 10SM CLR M07/M15 A3044 RMK AO2 SLP300 T10671150 56003

More Conditions Fewer Conditions

Presión 30.42 pul
Visibilidad 10.0 Millas
Nubes Despejado
Vientos helados 36 ° F
Punto de rocío 17 ° F
Humedad 46%
Precipitaciones 0.00 pul
Espesor de la nieve No disponible.
UV 0 de una escala de 12
Polen .40 de una escala de 12
Calidad del aire No disponible.
Flu Activity No disponible.
METAR KGCN 260854Z AUTO 00000KT 10SM CLR M07/M15 A3044 RMK AO2 SLP300 T10671150 56003

More Conditions Fewer Conditions

10-Day Weather Forecast

Almanac

Astronomía

Nov. 26, 2014 Salida Puesta
Hora real
Crepúsculo civil
Crepúsculo náutico
Crepúsculo astronómico
Luna
Horas de luz
Horas de luz
Tomorrow will be .
, % of the Moon is Illuminated

Extremos de hoy

Máximos del estado Bajos del estado

Community

WunderPhotos

Upload Photos

1,773,701 ¡fotos cargadas!

WunderBlogs® & News

Nearby

Calidad del aire

  Calidad del aire Índice AQ Contaminante
Not available.

Grosos de nieve

Estación Profundido Altura

Actividad de terremotos

Ciudad Distance Mag. Tiempo y dato
Magnitud mínima muestra es 2,5.

Temperaturas de aguas costeras

Lugar Temperatura

Estaciones meteorológicas cercanas